Time;durP1;ratioP1;P1;durP2;ratioP2;P2;SDS_P1;SDS_P2;PMS_P1;PMS_P2;Temp;Humidity;BMP_temperature;BMP_pressure;BME280_temperature;BME280_humidity;BME280_pressure;Samples;Min_cycle;Max_cycle;Signal;HPM_P1;HPM_P2
2021/01/08 00:00:57;;;;;;;12.27;6.73;;;;;;;0.02;100.00;151374.81;5093711;28;20448;-93
2021/01/08 00:03:32;;;;;;;12.03;7.40;;;;;;;-0.03;100.00;151363.28;5081648;28;20426;-93
2021/01/08 00:06:07;;;;;;;10.27;6.43;;;;;;;-0.03;100.00;151364.53;5081000;28;20497;-92
2021/01/08 00:08:42;;;;;;;10.80;6.97;;;;;;;0.00;100.00;151372.22;5091952;28;20793;-93
2021/01/08 00:11:19;;;;;;;8.83;6.80;;;;;;;-0.01;100.00;151369.69;5098333;28;20435;-93
2021/01/08 00:13:55;;;;;;;9.30;5.93;;;;;;;-0.01;100.00;151368.41;5097206;28;20772;-94
2021/01/08 00:16:33;;;;;;;9.60;7.00;;;;;;;-0.02;100.00;151365.81;5096842;28;20800;-93
2021/01/08 00:19:13;;;;;;;9.30;7.10;;;;;;;0.00;100.00;151372.22;5091219;28;20468;-92
2021/01/08 00:21:48;;;;;;;7.90;6.00;;;;;;;-0.01;100.00;151369.69;5079121;28;20430;-93
2021/01/08 00:24:23;;;;;;;11.07;7.77;;;;;;;0.03;100.00;151378.63;5079574;28;20980;-92
2021/01/08 00:27:03;;;;;;;10.40;7.60;;;;;;;0.00;100.00;151372.22;5096752;28;20450;-92
2021/01/08 00:29:39;;;;;;;10.00;6.87;;;;;;;0.03;100.00;151377.41;5092820;28;20431;-93
2021/01/08 00:32:14;;;;;;;8.47;6.67;;;;;;;0.06;100.00;151385.06;5076343;28;20966;-93
2021/01/08 00:34:49;;;;;;;8.90;6.70;;;;;;;0.06;100.00;151386.34;5075928;28;20438;-93
2021/01/08 00:37:25;;;;;;;11.30;7.80;;;;;;;0.04;100.00;151379.94;5076633;28;20432;-93
2021/01/08 00:40:00;;;;;;;9.43;6.70;;;;;;;0.03;100.00;151377.41;5076044;28;20472;-93
2021/01/08 00:42:37;;;;;;;10.63;6.90;;;;;;;0.01;100.00;151373.53;5072639;28;20443;-93
2021/01/08 00:45:13;;;;;;;10.10;6.60;;;;;;;0.06;100.00;151385.06;5096263;28;20430;-93
2021/01/08 00:47:49;;;;;;;13.10;7.10;;;;;;;0.09;100.00;151394.06;5096298;28;20447;-93
2021/01/08 00:50:24;;;;;;;9.87;7.17;;;;;;;0.09;100.00;151392.75;5096252;28;20432;-93
2021/01/08 00:53:00;;;;;;;10.40;7.30;;;;;;;0.10;100.00;151396.63;5096056;28;20445;-93
2021/01/08 00:55:36;;;;;;;9.73;7.30;;;;;;;0.11;100.00;151399.16;5084148;28;20467;-93
2021/01/08 00:58:16;;;;;;;8.97;7.00;;;;;;;0.14;100.00;151406.88;5076212;28;20440;-93
2021/01/08 01:00:51;;;;;;;8.80;6.80;;;;;;;0.13;100.00;151403.06;5076173;28;20602;-93
2021/01/08 01:03:26;;;;;;;10.07;6.70;;;;;;;0.16;100.00;151412.00;5076443;28;20471;-93
2021/01/08 01:06:09;;;;;;;9.73;7.17;;;;;;;0.12;100.00;151401.75;5076379;28;20480;-94
2021/01/08 01:08:45;;;;;;;9.00;6.97;;;;;;;0.11;100.00;151397.94;5079594;28;20455;-92
2021/01/08 01:11:21;;;;;;;10.70;6.97;;;;;;;0.09;100.00;151392.75;5089443;28;20443;-94
2021/01/08 01:13:58;;;;;;;9.30;6.87;;;;;;;0.07;100.00;151388.94;5075813;28;20443;-93
2021/01/08 01:16:33;;;;;;;9.53;6.37;;;;;;;0.05;100.00;151383.81;5095777;28;20480;-93
2021/01/08 01:19:09;;;;;;;9.17;6.57;;;;;;;0.07;100.00;151387.63;5095886;28;20491;-93
2021/01/08 01:21:44;;;;;;;10.07;6.40;;;;;;;0.09;100.00;151394.06;5096512;28;20445;-93
2021/01/08 01:24:19;;;;;;;9.37;6.50;;;;;;;0.12;100.00;151400.47;5096145;28;20438;-93
2021/01/08 01:26:56;;;;;;;9.13;6.73;;;;;;;0.11;100.00;151397.94;5097126;28;20856;-93
2021/01/08 01:29:32;;;;;;;8.73;6.10;;;;;;;0.10;100.00;151395.34;5096408;28;20840;-93
2021/01/08 01:32:07;;;;;;;9.47;6.40;;;;;;;0.08;100.00;151390.22;5095860;28;20928;-94
2021/01/08 01:34:42;;;;;;;9.47;6.67;;;;;;;0.09;100.00;151392.75;5095650;28;20463;-94
2021/01/08 01:37:17;;;;;;;7.00;5.47;;;;;;;0.05;100.00;151382.50;5095841;28;20439;-95
2021/01/08 01:39:53;;;;;;;7.30;5.27;;;;;;;0.07;100.00;151387.63;5095654;28;20817;-94
2021/01/08 01:42:28;;;;;;;8.70;6.37;;;;;;;0.05;100.00;151382.50;5096073;28;20437;-94
2021/01/08 01:45:06;;;;;;;7.23;5.40;;;;;;;0.02;100.00;151374.81;5079786;28;20452;-94
2021/01/08 01:47:41;;;;;;;7.93;4.87;;;;;;;-0.03;100.00;151364.53;5096762;28;20439;-93
2021/01/08 01:50:17;;;;;;;6.43;5.00;;;;;;;-0.08;100.00;151351.69;5095675;28;20441;-93
2021/01/08 01:52:52;;;;;;;6.73;4.90;;;;;;;-0.13;100.00;151337.56;5095541;28;20437;-93
2021/01/08 01:55:28;;;;;;;7.57;5.30;;;;;;;-0.15;100.00;151333.75;5094984;28;20478;-94
2021/01/08 01:58:04;;;;;;;9.60;5.50;;;;;;;-0.22;100.00;151314.50;5080002;28;20442;-94
2021/01/08 02:00:40;;;;;;;7.10;4.43;;;;;;;-0.29;100.00;151297.81;5095091;28;20527;-94
2021/01/08 02:03:18;;;;;;;6.83;5.50;;;;;;;-0.32;100.00;151290.09;5079777;28;20434;-94
2021/01/08 02:05:57;;;;;;;5.33;4.40;;;;;;;-0.38;100.00;151274.75;5095289;28;20447;-94
2021/01/08 02:08:33;;;;;;;8.37;4.93;;;;;;;-0.41;100.00;151267.03;5095423;28;20434;-94
2021/01/08 02:11:11;;;;;;;7.47;5.10;;;;;;;-0.40;100.00;151269.63;5095152;28;20436;-93
2021/01/08 02:13:54;;;;;;;6.27;5.00;;;;;;;-0.46;100.00;151252.94;5095206;28;20461;-94
2021/01/08 02:16:32;;;;;;;7.60;5.30;;;;;;;-0.48;100.00;151249.09;5095047;28;20826;-95
2021/01/08 02:19:11;;;;;;;9.13;5.20;;;;;;;-0.43;100.00;151261.94;5094623;28;20467;-95
2021/01/08 02:21:52;;;;;;;6.63;4.60;;;;;;;-0.46;100.00;151254.22;5095000;28;20445;-94
2021/01/08 02:24:32;;;;;;;6.13;4.40;;;;;;;-0.42;100.00;151264.47;5094277;28;20424;-95
2021/01/08 02:27:08;;;;;;;6.93;4.80;;;;;;;-0.38;100.00;151274.75;5101788;28;20425;-92
2021/01/08 02:29:43;;;;;;;13.80;5.80;;;;;;;-0.38;100.00;151274.75;5102369;28;20438;-94
2021/01/08 02:32:19;;;;;;;8.70;5.37;;;;;;;-0.35;100.00;151281.16;5098650;28;20435;-94
2021/01/08 02:34:54;;;;;;;10.07;6.20;;;;;;;-0.36;100.00;151278.56;5096045;28;20459;-94
2021/01/08 02:37:30;;;;;;;7.20;5.60;;;;;;;-0.39;100.00;151272.16;5094665;28;20437;-94
2021/01/08 02:40:07;;;;;;;10.57;5.97;;;;;;;-0.39;100.00;151272.16;5094560;28;20475;-93
2021/01/08 02:42:46;;;;;;;7.97;5.50;;;;;;;-0.36;100.00;151279.88;5079044;28;20433;-93
2021/01/08 02:45:21;;;;;;;7.33;6.17;;;;;;;-0.33;100.00;151287.56;5094346;28;20441;-94
2021/01/08 02:47:56;;;;;;;9.57;6.90;;;;;;;-0.34;100.00;151284.97;5094153;28;20436;-94
2021/01/08 02:50:32;;;;;;;10.30;6.97;;;;;;;-0.36;100.00;151279.88;5094199;28;20451;-94
2021/01/08 02:53:09;;;;;;;10.67;7.03;;;;;;;-0.32;100.00;151290.09;5094551;28;20435;-94
2021/01/08 02:55:50;;;;;;;10.23;6.53;;;;;;;-0.31;100.00;151292.69;5093822;28;20476;-94
2021/01/08 02:58:26;;;;;;;11.03;7.77;;;;;;;-0.30;100.00;151293.97;5094096;28;20910;-94
2021/01/08 03:01:03;;;;;;;12.37;8.70;;;;;;;-0.23;100.00;151311.94;5094160;28;20436;-94
2021/01/08 03:03:38;;;;;;;15.30;9.13;;;;;;;-0.26;100.00;151305.50;5093939;28;20436;-94
2021/01/08 03:06:14;;;;;;;14.00;8.47;;;;;;;-0.27;100.00;151302.97;5077003;28;20495;-93
2021/01/08 03:08:49;;;;;;;11.57;8.27;;;;;;;-0.28;100.00;151300.41;5058392;28;20457;-94
2021/01/08 03:11:24;;;;;;;12.40;8.40;;;;;;;-0.23;100.00;151313.22;5073746;28;20806;-94
2021/01/08 03:14:02;;;;;;;9.80;8.17;;;;;;;-0.23;100.00;151313.22;5058059;28;20492;-94
2021/01/08 03:16:37;;;;;;;12.97;8.20;;;;;;;-0.26;100.00;151305.50;5073627;28;20446;-93
2021/01/08 03:19:12;;;;;;;10.90;8.50;;;;;;;-0.24;100.00;151310.63;5058296;28;20453;-93
2021/01/08 03:21:48;;;;;;;12.40;8.30;;;;;;;-0.24;100.00;151310.63;5073615;28;20833;-93
2021/01/08 03:24:23;;;;;;;11.10;8.43;;;;;;;-0.22;100.00;151315.81;5074455;28;20406;-93
2021/01/08 03:26:58;;;;;;;13.30;8.17;;;;;;;-0.24;100.00;151310.63;5073314;28;20523;-93
2021/01/08 03:29:34;;;;;;;12.70;9.60;;;;;;;-0.26;100.00;151305.50;5073894;28;20441;-94
2021/01/08 03:32:09;;;;;;;11.53;8.60;;;;;;;-0.23;100.00;151313.22;5073394;28;20457;-94
2021/01/08 03:34:45;;;;;;;12.47;8.90;;;;;;;-0.22;100.00;151315.81;5073834;28;20843;-94
2021/01/08 03:37:20;;;;;;;14.47;9.07;;;;;;;-0.29;100.00;151297.81;5086561;28;20925;-93
2021/01/08 03:39:55;;;;;;;13.00;8.97;;;;;;;-0.29;100.00;151296.56;5113766;28;20460;-94
2021/01/08 03:42:30;;;;;;;12.40;7.87;;;;;;;-0.29;100.00;151296.56;5098213;28;20429;-94
2021/01/08 03:45:08;;;;;;;12.30;8.40;;;;;;;-0.27;100.00;151302.97;5097919;28;20440;-93
2021/01/08 03:47:43;;;;;;;11.47;7.57;;;;;;;-0.27;100.00;151302.97;5097863;28;20907;-93
2021/01/08 03:50:18;;;;;;;13.10;8.30;;;;;;;-0.26;100.00;151304.22;5098038;28;20925;-95
2021/01/08 03:52:54;;;;;;;11.57;7.40;;;;;;;-0.27;100.00;151302.97;5097322;28;20440;-94
2021/01/08 03:55:29;;;;;;;13.67;7.50;;;;;;;-0.31;100.00;151292.69;5110611;28;20495;-94
2021/01/08 03:58:05;;;;;;;12.17;8.50;;;;;;;-0.31;100.00;151292.69;5102009;28;20837;-94
2021/01/08 04:00:41;;;;;;;11.67;8.67;;;;;;;-0.31;100.00;151292.69;5118060;28;20466;-94
2021/01/08 04:03:16;;;;;;;13.43;8.47;;;;;;;-0.32;100.00;151290.09;5100963;28;20427;-94
2021/01/08 04:05:51;;;;;;;10.13;7.80;;;;;;;-0.32;100.00;151290.09;5100912;28;20436;-94
2021/01/08 04:08:27;;;;;;;10.67;8.70;;;;;;;-0.35;100.00;151282.44;5118634;28;20827;-93
2021/01/08 04:11:02;;;;;;;9.17;7.27;;;;;;;-0.34;100.00;151284.97;5084464;28;20513;-94
2021/01/08 04:13:37;;;;;;;12.33;8.53;;;;;;;-0.36;100.00;151279.88;5085169;28;20425;-95
2021/01/08 04:16:13;;;;;;;11.20;8.10;;;;;;;-0.34;100.00;151284.97;5100302;28;20443;-94
2021/01/08 04:18:48;;;;;;;11.77;7.23;;;;;;;-0.36;100.00;151278.56;5100704;28;20424;-94
2021/01/08 04:21:23;;;;;;;13.80;7.53;;;;;;;-0.39;100.00;151270.88;5100343;28;20790;-94
2021/01/08 04:23:59;;;;;;;10.77;7.10;;;;;;;-0.40;100.00;151269.63;5100594;28;20937;-94
2021/01/08 04:26:34;;;;;;;9.50;7.03;;;;;;;-0.40;100.00;151269.63;5100291;28;20437;-94
2021/01/08 04:29:10;;;;;;;9.53;7.53;;;;;;;-0.41;100.00;151267.03;5118173;28;20754;-94
2021/01/08 04:31:46;;;;;;;9.17;7.27;;;;;;;-0.43;100.00;151261.94;5100024;28;20444;-93
2021/01/08 04:34:21;;;;;;;12.90;7.60;;;;;;;-0.42;100.00;151263.16;5084548;28;20436;-94
2021/01/08 04:36:57;;;;;;;10.07;7.23;;;;;;;-0.41;100.00;151267.03;5085002;28;20465;-93
2021/01/08 04:39:33;;;;;;;13.33;7.83;;;;;;;-0.40;100.00;151268.34;5084318;28;20466;-93
2021/01/08 04:42:08;;;;;;;11.60;7.83;;;;;;;-0.41;100.00;151267.03;5084564;28;20424;-94
2021/01/08 04:44:44;;;;;;;8.97;6.87;;;;;;;-0.38;100.00;151274.75;5100070;28;20452;-94
2021/01/08 04:47:21;;;;;;;12.43;7.33;;;;;;;-0.43;100.00;151261.94;5083910;28;20427;-94
2021/01/08 04:49:56;;;;;;;10.47;7.20;;;;;;;-0.40;100.00;151269.63;5084583;28;20428;-94
2021/01/08 04:52:32;;;;;;;8.53;7.03;;;;;;;-0.37;100.00;151277.28;5100023;28;20911;-93
2021/01/08 04:55:09;;;;;;;14.50;8.40;;;;;;;-0.36;100.00;151279.88;5084246;28;20563;-93
2021/01/08 04:57:47;;;;;;;10.57;7.10;;;;;;;-0.31;100.00;151291.41;5084510;28;20423;-94
2021/01/08 05:00:23;;;;;;;10.80;8.13;;;;;;;-0.32;100.00;151290.09;5084639;28;20495;-94
2021/01/08 05:03:00;;;;;;;10.20;7.60;;;;;;;-0.33;100.00;151287.56;5083906;28;20431;-94
2021/01/08 05:05:35;;;;;;;9.97;7.07;;;;;;;-0.33;100.00;151286.28;5083872;28;20468;-93
2021/01/08 05:08:11;;;;;;;8.47;6.10;;;;;;;-0.37;100.00;151276.03;5084413;28;20417;-94
2021/01/08 05:10:46;;;;;;;9.77;6.73;;;;;;;-0.37;100.00;151277.28;5084200;28;20425;-94
2021/01/08 05:13:22;;;;;;;12.03;6.97;;;;;;;-0.34;100.00;151283.69;5095062;28;20793;-93
2021/01/08 05:16:01;;;;;;;9.30;6.27;;;;;;;-0.34;100.00;151284.97;5095980;28;20428;-95
2021/01/08 05:18:38;;;;;;;8.37;5.53;;;;;;;-0.30;100.00;151293.97;5107665;28;20435;-95
2021/01/08 05:21:14;;;;;;;8.70;5.73;;;;;;;-0.33;100.00;151287.56;5085064;28;20439;-94
2021/01/08 05:23:49;;;;;;;8.90;6.40;;;;;;;-0.38;100.00;151274.75;5099393;28;20424;-95
2021/01/08 05:26:25;;;;;;;7.30;5.43;;;;;;;-0.40;100.00;151269.63;5083945;28;20440;-95
2021/01/08 05:29:01;;;;;;;8.67;6.77;;;;;;;-0.45;100.00;151256.75;5083250;28;20499;-95
2021/01/08 05:31:37;;;;;;;10.03;6.93;;;;;;;-0.46;100.00;151252.94;5083669;28;20499;-95
2021/01/08 05:34:14;;;;;;;11.33;6.03;;;;;;;-0.46;100.00;151254.22;5083438;28;20788;-95
2021/01/08 05:36:49;;;;;;;7.97;6.50;;;;;;;-0.44;100.00;151259.34;5083504;28;20911;-85
2021/01/08 05:39:26;;;;;;;8.63;6.20;;;;;;;-0.45;100.00;151256.75;5083432;28;20540;-94
2021/01/08 05:42:02;;;;;;;7.63;6.53;;;;;;;-0.45;100.00;151256.75;5083227;28;20459;-95
2021/01/08 05:44:38;;;;;;;8.10;5.37;;;;;;;-0.46;100.00;151252.94;5083193;28;20793;-94
2021/01/08 05:47:14;;;;;;;8.53;5.83;;;;;;;-0.46;100.00;151254.22;5082966;28;20428;-95
2021/01/08 05:49:51;;;;;;;11.67;6.30;;;;;;;-0.45;100.00;151255.50;5083514;28;20506;-94
2021/01/08 05:52:26;;;;;;;8.60;6.23;;;;;;;-0.44;100.00;151258.03;5083298;28;20428;-94
2021/01/08 05:55:10;;;;;;;8.23;6.10;;;;;;;-0.44;100.00;151259.34;5079501;28;21558;-95
2021/01/08 05:57:50;;;;;;;7.77;5.10;;;;;;;-0.44;100.00;151259.34;5079982;28;20463;-95
2021/01/08 06:00:25;;;;;;;8.67;5.73;;;;;;;-0.44;100.00;151259.34;5078481;28;20471;-95
2021/01/08 06:03:01;;;;;;;8.20;5.50;;;;;;;-0.41;100.00;151267.03;5079118;28;20437;-94
2021/01/08 06:05:41;;;;;;;7.83;5.60;;;;;;;-0.39;100.00;151272.16;5079246;28;20475;-93
2021/01/08 06:08:21;;;;;;;7.90;5.80;;;;;;;-0.38;100.00;151274.75;5091022;28;20441;-96
2021/01/08 06:10:59;;;;;;;7.80;5.77;;;;;;;-0.36;100.00;151279.88;5091344;28;20471;-96
2021/01/08 06:13:36;;;;;;;7.57;5.60;;;;;;;-0.36;100.00;151278.56;5106142;28;20516;-96
2021/01/08 06:16:18;;;;;;;7.47;5.37;;;;;;;-0.40;100.00;151269.63;5090548;28;20791;-96
2021/01/08 06:18:57;;;;;;;8.40;5.57;;;;;;;-0.40;100.00;151269.63;5090470;28;20946;-96
2021/01/08 06:21:39;;;;;;;8.97;5.80;;;;;;;-0.41;100.00;151265.75;5090985;28;20487;-96
2021/01/08 06:24:25;;;;;;;9.50;5.60;;;;;;;-0.45;100.00;151256.75;5108559;28;20424;-96
2021/01/08 06:27:02;;;;;;;8.77;6.20;;;;;;;-0.48;100.00;151249.09;5090430;28;20421;-96
2021/01/08 06:29:41;;;;;;;9.80;6.53;;;;;;;-0.44;100.00;151258.03;5074824;28;20455;-96
2021/01/08 06:32:18;;;;;;;10.73;6.03;;;;;;;-0.40;100.00;151269.63;5090056;28;20453;-96
2021/01/08 06:34:55;;;;;;;9.07;6.20;;;;;;;-0.39;100.00;151270.88;5090182;28;20974;-96
2021/01/08 06:37:48;;;;;;;8.70;6.00;;;;;;;-0.44;100.00;151259.34;5090326;28;20425;-96
2021/01/08 06:40:44;;;;;;;9.17;5.30;;;;;;;-0.40;100.00;151269.63;5090815;28;20473;-96
2021/01/08 06:43:24;;;;;;;9.57;6.13;;;;;;;-0.37;100.00;151277.28;5106521;28;20452;-96
2021/01/08 06:46:08;;;;;;;8.57;6.07;;;;;;;-0.32;100.00;151290.09;5089911;28;20550;-96
2021/01/08 06:48:45;;;;;;;7.37;5.80;;;;;;;-0.35;100.00;151281.16;5092304;28;20436;-96
2021/01/08 06:51:38;;;;;;;8.37;5.43;;;;;;;-0.34;100.00;151284.97;5095923;28;20467;-96
2021/01/08 06:54:36;;;;;;;7.20;5.33;;;;;;;-0.33;100.00;151287.56;5110876;28;20433;-96
2021/01/08 06:57:22;;;;;;;10.23;5.60;;;;;;;-0.25;100.00;151308.09;5108175;28;20445;-96
2021/01/08 07:00:05;;;;;;;8.07;5.27;;;;;;;-0.24;100.00;151310.63;5092136;28;20482;-96
2021/01/08 07:02:44;;;;;;;7.23;5.03;;;;;;;-0.27;100.00;151302.97;5091471;28;20474;-96
2021/01/08 07:05:21;;;;;;;8.00;5.83;;;;;;;-0.26;100.00;151304.22;5106258;28;20436;-96
2021/01/08 07:07:58;;;;;;;7.70;5.50;;;;;;;-0.23;100.00;151313.22;5089734;28;20429;-96
2021/01/08 07:10:37;;;;;;;8.90;6.37;;;;;;;-0.22;100.00;151314.50;5090921;28;20425;-96
2021/01/08 07:13:28;;;;;;;8.90;5.63;;;;;;;-0.24;100.00;151310.63;5091394;28;20444;-96
2021/01/08 07:16:15;;;;;;;6.50;4.97;;;;;;;-0.22;100.00;151315.81;5091860;28;20429;-96
2021/01/08 07:19:08;;;;;;;11.40;5.10;;;;;;;-0.22;100.00;151315.81;5105811;28;20471;-96
2021/01/08 07:21:49;;;;;;;8.60;5.70;;;;;;;-0.24;100.00;151310.63;5091311;28;20429;-96
2021/01/08 07:24:35;;;;;;;7.50;5.40;;;;;;;-0.20;100.00;151319.63;5092652;28;20432;-96
2021/01/08 07:27:28;;;;;;;8.90;5.53;;;;;;;-0.21;100.00;151317.03;5077236;28;20429;-95
2021/01/08 07:30:08;;;;;;;7.73;5.43;;;;;;;-0.18;100.00;151326.03;5093342;28;20515;-96
2021/01/08 07:32:57;;;;;;;6.40;4.40;;;;;;;-0.10;100.00;151346.56;5095070;28;20442;-96
2021/01/08 07:35:41;;;;;;;9.63;5.60;;;;;;;-0.14;100.00;151336.34;5091842;28;20937;-96
2021/01/08 07:38:18;;;;;;;9.40;6.10;;;;;;;-0.18;100.00;151324.75;5090431;28;20443;-96
2021/01/08 07:40:58;;;;;;;8.20;5.80;;;;;;;-0.12;100.00;151340.16;5084902;28;20486;-96
2021/01/08 07:43:40;;;;;;;8.90;5.57;;;;;;;-0.16;100.00;151331.16;5087565;28;20516;-96
2021/01/08 07:46:31;;;;;;;7.50;5.40;;;;;;;-0.11;100.00;151344.00;5091958;28;20444;-96
2021/01/08 07:49:08;;;;;;;9.30;5.67;;;;;;;-0.14;100.00;151335.03;5089500;28;20501;-96
2021/01/08 07:51:49;;;;;;;7.90;5.03;;;;;;;-0.14;100.00;151335.03;5109699;28;20482;-96
2021/01/08 07:54:55;;;;;;;6.80;4.90;;;;;;;-0.11;100.00;151344.00;5124688;28;20484;-96
2021/01/08 07:57:32;;;;;;;7.13;4.67;;;;;;;-0.03;100.00;151364.53;5100034;28;20439;-96
2021/01/08 08:00:27;;;;;;;6.93;4.97;;;;;;;-0.07;100.00;151354.28;5101999;28;20468;-96
2021/01/08 08:03:02;;;;;;;6.77;5.50;;;;;;;-0.02;100.00;151367.09;5120274;28;20444;-96
2021/01/08 08:05:38;;;;;;;8.90;5.70;;;;;;;-0.01;100.00;151369.69;5087122;28;20457;-95
2021/01/08 08:08:14;;;;;;;8.00;5.30;;;;;;;-0.02;100.00;151367.09;5084193;28;20450;-95
2021/01/08 08:10:53;;;;;;;7.43;5.50;;;;;;;-0.03;100.00;151364.53;5066240;28;20927;-95
2021/01/08 08:13:30;;;;;;;8.50;5.77;;;;;;;0.00;100.00;151372.22;5065650;28;20511;-96
2021/01/08 08:16:07;;;;;;;6.80;5.30;;;;;;;-0.02;100.00;151365.81;5065453;28;20837;-95
2021/01/08 08:18:53;;;;;;;9.00;5.57;;;;;;;-0.02;100.00;151367.09;5066922;28;20534;-95
2021/01/08 08:21:29;;;;;;;8.10;6.10;;;;;;;0.03;100.00;151377.41;5066634;28;20429;-95
2021/01/08 08:24:06;;;;;;;9.37;6.50;;;;;;;0.06;100.00;151386.34;5069148;28;20451;-95
2021/01/08 08:26:42;;;;;;;7.67;5.53;;;;;;;0.10;100.00;151396.63;5068783;28;20481;-96
2021/01/08 08:29:18;;;;;;;10.80;8.17;;;;;;;0.05;100.00;151382.50;5069550;28;20512;-96
2021/01/08 08:31:56;;;;;;;9.47;5.80;;;;;;;0.09;100.00;151394.06;5069045;28;20482;-95
2021/01/08 08:34:32;;;;;;;6.53;5.00;;;;;;;0.11;100.00;151397.94;5069425;28;20436;-96
2021/01/08 08:37:09;;;;;;;7.77;5.60;;;;;;;0.10;100.00;151395.34;5068910;28;20804;-95
2021/01/08 08:39:44;;;;;;;7.10;5.60;;;;;;;0.11;100.00;151399.16;5068892;28;20475;-96
2021/01/08 08:42:20;;;;;;;7.73;5.40;;;;;;;0.12;100.00;151401.75;5083817;28;20471;-95
2021/01/08 08:44:56;;;;;;;6.80;5.40;;;;;;;0.10;100.00;151395.34;5068531;28;20500;-95
2021/01/08 08:47:33;;;;;;;7.97;6.50;;;;;;;0.11;100.00;151399.16;5068830;28;20926;-95
2021/01/08 08:50:09;;;;;;;9.70;6.20;;;;;;;0.09;100.00;151394.06;5085016;28;20501;-95
2021/01/08 08:52:45;;;;;;;8.73;6.10;;;;;;;0.13;100.00;151403.06;5069385;28;20451;-95
2021/01/08 08:55:28;;;;;;;8.30;6.03;;;;;;;0.16;100.00;151410.75;5084121;28;20807;-96
2021/01/08 08:58:06;;;;;;;9.23;5.67;;;;;;;0.18;100.00;151417.19;5070259;28;20448;-95
2021/01/08 09:00:43;;;;;;;9.00;6.17;;;;;;;0.16;100.00;151412.00;5067476;28;20543;-94
2021/01/08 09:03:21;;;;;;;6.60;5.50;;;;;;;0.19;100.00;151418.41;5067046;28;20446;-94
2021/01/08 09:05:57;;;;;;;6.53;5.20;;;;;;;0.19;100.00;151419.72;5082627;28;20455;-95
2021/01/08 09:08:36;;;;;;;6.97;5.37;;;;;;;0.18;100.00;151415.88;5067858;28;20783;-95
2021/01/08 09:11:17;;;;;;;8.10;5.37;;;;;;;0.19;100.00;151419.72;5067499;28;20462;-94
2021/01/08 09:13:56;;;;;;;5.90;4.90;;;;;;;0.20;100.00;151421.00;5083822;28;20903;-95
2021/01/08 09:16:37;;;;;;;7.47;5.30;;;;;;;0.23;100.00;151428.72;5068906;28;20492;-95
2021/01/08 09:19:20;;;;;;;7.03;4.93;;;;;;;0.23;100.00;151428.72;5067298;28;20444;-95
2021/01/08 09:21:57;;;;;;;6.80;5.13;;;;;;;0.23;100.00;151430.00;5067580;28;20487;-96
2021/01/08 09:24:33;;;;;;;7.63;5.40;;;;;;;0.24;100.00;151431.28;5070670;28;20473;-96
2021/01/08 09:27:11;;;;;;;10.50;5.10;;;;;;;0.27;100.00;151438.97;5068522;28;20444;-96
2021/01/08 09:29:47;;;;;;;4.77;4.30;;;;;;;0.31;100.00;151449.25;5070898;28;20439;-95
2021/01/08 09:32:33;;;;;;;6.67;4.20;;;;;;;0.37;100.00;151464.66;5067350;28;20443;-95
2021/01/08 09:35:10;;;;;;;6.80;5.73;;;;;;;0.37;100.00;151464.66;5066489;28;20496;-95
2021/01/08 09:37:49;;;;;;;7.00;4.20;;;;;;;0.34;100.00;151456.97;5066154;28;20492;-96
2021/01/08 09:40:25;;;;;;;8.63;4.87;;;;;;;0.36;100.00;151462.09;5082391;28;20476;-95
2021/01/08 09:43:01;;;;;;;7.07;5.30;;;;;;;0.39;100.00;151469.78;5067391;28;20474;-95
2021/01/08 09:45:37;;;;;;;5.97;3.90;;;;;;;0.42;100.00;151477.50;5081976;28;20489;-95
2021/01/08 09:48:22;;;;;;;6.40;4.00;;;;;;;0.42;100.00;151477.50;5081863;28;20936;-96
2021/01/08 09:51:03;;;;;;;7.03;4.40;;;;;;;0.47;100.00;151491.63;5082036;28;20447;-94
2021/01/08 09:53:38;;;;;;;5.23;4.23;;;;;;;0.49;100.00;151496.75;5066104;28;20434;-94
2021/01/08 09:56:16;;;;;;;4.27;3.53;;;;;;;0.51;100.00;151500.56;5065528;28;20879;-94
2021/01/08 09:59:10;;;;;;;4.13;3.20;;;;;;;0.57;100.00;151517.28;5065704;28;20439;-94
2021/01/08 10:01:54;;;;;;;6.93;4.17;;;;;;;0.56;100.00;151514.69;5066477;28;20435;-94
2021/01/08 10:04:33;;;;;;;4.67;3.23;;;;;;;0.56;100.00;151513.41;5076617;28;20438;-94
2021/01/08 10:07:10;;;;;;;5.13;3.77;;;;;;;0.56;100.00;151513.41;5077968;28;20531;-94
2021/01/08 10:09:49;;;;;;;4.20;3.43;;;;;;;0.56;100.00;151514.69;5081194;28;20478;-94
2021/01/08 10:12:25;;;;;;;5.50;3.77;;;;;;;0.55;100.00;151512.16;5081142;28;20438;-93
2021/01/08 10:15:02;;;;;;;4.67;3.10;;;;;;;0.66;100.00;151537.84;5065875;28;20947;-93
2021/01/08 10:17:44;;;;;;;5.77;3.83;;;;;;;0.65;100.00;151535.25;5082278;28;20437;-93
2021/01/08 10:20:24;;;;;;;4.40;3.17;;;;;;;0.69;100.00;151546.78;5065126;28;20481;-92
2021/01/08 10:23:01;;;;;;;3.60;3.20;;;;;;;0.74;100.00;151559.66;5067299;28;20438;-93
2021/01/08 10:25:36;;;;;;;4.10;3.53;;;;;;;0.76;100.00;151564.81;5093260;28;20453;-91
2021/01/08 10:28:15;;;;;;;4.83;3.50;;;;;;;0.77;100.00;151567.34;5097854;28;20794;-92
2021/01/08 10:30:52;;;;;;;4.13;3.10;;;;;;;0.79;100.00;151572.50;5098281;28;20442;-92
2021/01/08 10:33:27;;;;;;;4.30;3.20;;;;;;;0.75;100.00;151560.91;5098625;28;20435;-93
2021/01/08 10:36:03;;;;;;;4.33;3.03;;;;;;;0.80;100.00;151575.03;5098368;28;20459;-93
2021/01/08 10:38:39;;;;;;;3.80;3.27;;;;;;;0.75;100.00;151562.22;5081892;28;20448;-93
2021/01/08 10:41:16;;;;;;;5.03;3.60;;;;;;;0.74;100.00;151559.66;5046640;28;20550;-92
2021/01/08 10:43:52;;;;;;;4.03;2.90;;;;;;;0.76;100.00;151564.81;5085181;28;20449;-91
2021/01/08 10:46:27;;;;;;;4.20;2.97;;;;;;;0.72;100.00;151554.50;5074414;28;20451;-92
2021/01/08 10:49:03;;;;;;;4.70;3.03;;;;;;;0.77;100.00;151567.34;5073353;28;20443;-92
2021/01/08 10:51:38;;;;;;;4.53;3.00;;;;;;;0.80;100.00;151575.03;5065706;28;20997;-93
2021/01/08 10:54:17;;;;;;;4.57;3.20;;;;;;;0.82;100.00;151580.16;5065225;28;20451;-93
2021/01/08 10:56:54;;;;;;;4.43;3.13;;;;;;;0.84;100.00;151585.34;5064551;28;20499;-93
2021/01/08 10:59:29;;;;;;;2.87;2.63;;;;;;;0.78;100.00;151569.91;5011493;28;20436;-94
2021/01/08 11:02:05;;;;;;;4.47;3.50;;;;;;;0.78;100.00;151568.63;5080227;28;20431;-93
2021/01/08 11:04:41;;;;;;;4.40;3.37;;;;;;;0.83;100.00;151582.75;5076471;28;20446;-94
2021/01/08 11:07:17;;;;;;;5.33;4.10;;;;;;;0.85;100.00;151587.88;5031572;28;20444;-93
2021/01/08 11:09:54;;;;;;;5.70;3.20;;;;;;;0.91;100.00;151603.31;5059973;28;20452;-93
2021/01/08 11:12:31;;;;;;;4.63;3.40;;;;;;;0.97;100.00;151617.44;5078578;28;20444;-91
2021/01/08 11:15:08;;;;;;;4.43;3.10;;;;;;;0.95;100.00;151613.59;5083195;28;20455;-92
2021/01/08 11:17:43;;;;;;;5.37;3.73;;;;;;;1.01;100.00;151628.97;5096477;28;20454;-91
2021/01/08 11:20:21;;;;;;;4.40;3.90;;;;;;;1.04;100.00;151636.69;5024364;28;20474;-91
2021/01/08 11:22:59;;;;;;;4.10;3.63;;;;;;;1.05;100.00;151638.00;5078051;28;20887;-90
2021/01/08 11:25:35;;;;;;;5.67;4.20;;;;;;;1.03;100.00;151632.88;5081250;28;20440;-90
2021/01/08 11:28:11;;;;;;;5.93;4.40;;;;;;;1.03;100.00;151634.09;5058657;28;20470;-89
2021/01/08 11:30:46;;;;;;;4.57;3.07;;;;;;;1.05;100.00;151639.28;5045293;28;20780;-90
2021/01/08 11:33:22;;;;;;;5.90;4.00;;;;;;;1.14;100.00;151661.09;5064691;28;20853;-88
2021/01/08 11:35:57;;;;;;;4.90;4.13;;;;;;;1.18;100.00;151672.69;5082668;28;20452;-88
2021/01/08 11:38:32;;;;;;;4.97;3.67;;;;;;;1.20;100.00;151677.81;5081614;28;20443;-89
2021/01/08 11:41:09;;;;;;;4.17;3.63;;;;;;;1.24;100.00;151688.06;5081932;28;20834;-90
2021/01/08 11:43:45;;;;;;;5.63;4.50;;;;;;;1.26;99.38;151690.66;5048008;28;20862;-91
2021/01/08 11:46:21;;;;;;;6.10;4.47;;;;;;;1.33;99.98;151709.91;5011450;28;20445;-89
2021/01/08 11:48:56;;;;;;;6.30;3.60;;;;;;;1.32;98.35;151707.38;5078388;28;20434;-90
2021/01/08 11:51:32;;;;;;;6.60;3.67;;;;;;;1.40;100.00;151726.63;5044400;28;20986;-89
2021/01/08 11:54:08;;;;;;;3.60;2.90;;;;;;;1.41;100.00;151729.16;5073608;28;20460;-89
2021/01/08 11:56:44;;;;;;;5.40;3.23;;;;;;;1.44;98.37;151738.19;5093335;28;20433;-89
2021/01/08 11:59:19;;;;;;;4.40;3.23;;;;;;;1.42;99.15;151733.06;5068777;28;20437;-89
2021/01/08 12:02:02;;;;;;;4.57;3.67;;;;;;;1.41;97.96;151729.16;5096657;28;20442;-89
2021/01/08 12:04:38;;;;;;;4.40;3.23;;;;;;;1.43;98.61;151734.34;5082217;28;20448;-89
2021/01/08 12:07:13;;;;;;;5.27;3.50;;;;;;;1.43;96.69;151734.34;5082503;28;20428;-89